sensor_id;sensor_type;location;lat;lon;timestamp;temperature;humidity
38854;DHT22;24606;51.992;4.198;2023-08-21T00:02:00;29.90;63.50
38854;DHT22;24606;51.992;4.198;2023-08-21T00:07:02;29.90;63.60
38854;DHT22;24606;51.992;4.198;2023-08-21T00:12:06;29.80;63.50
38854;DHT22;24606;51.992;4.198;2023-08-21T00:17:08;29.80;63.60
38854;DHT22;24606;51.992;4.198;2023-08-21T00:22:10;29.80;63.60
38854;DHT22;24606;51.992;4.198;2023-08-21T00:27:13;29.70;63.40
38854;DHT22;24606;51.992;4.198;2023-08-21T00:32:15;29.70;63.50
38854;DHT22;24606;51.992;4.198;2023-08-21T00:37:17;29.70;63.40
38854;DHT22;24606;51.992;4.198;2023-08-21T00:42:22;29.60;63.40
38854;DHT22;24606;51.992;4.198;2023-08-21T00:47:24;29.60;63.40
38854;DHT22;24606;51.992;4.198;2023-08-21T00:52:26;29.60;63.40
38854;DHT22;24606;51.992;4.198;2023-08-21T00:57:29;29.50;63.40
38854;DHT22;24606;51.992;4.198;2023-08-21T01:02:31;29.50;63.40
38854;DHT22;24606;51.992;4.198;2023-08-21T01:07:38;29.40;63.40
38854;DHT22;24606;51.992;4.198;2023-08-21T01:12:48;29.40;63.40
38854;DHT22;24606;51.992;4.198;2023-08-21T01:17:53;29.40;63.20
38854;DHT22;24606;51.992;4.198;2023-08-21T01:22:55;29.40;63.40
38854;DHT22;24606;51.992;4.198;2023-08-21T01:27:59;29.30;63.50
38854;DHT22;24606;51.992;4.198;2023-08-21T01:33:05;29.30;63.60
38854;DHT22;24606;51.992;4.198;2023-08-21T01:38:08;29.20;63.70
38854;DHT22;24606;51.992;4.198;2023-08-21T01:43:11;29.30;64.30
38854;DHT22;24606;51.992;4.198;2023-08-21T01:48:13;29.20;63.80
38854;DHT22;24606;51.992;4.198;2023-08-21T01:53:15;29.20;63.90
38854;DHT22;24606;51.992;4.198;2023-08-21T01:58:18;29.20;63.90
38854;DHT22;24606;51.992;4.198;2023-08-21T02:03:20;29.10;63.80
38854;DHT22;24606;51.992;4.198;2023-08-21T02:08:22;29.10;63.90
38854;DHT22;24606;51.992;4.198;2023-08-21T02:13:25;29.10;63.90
38854;DHT22;24606;51.992;4.198;2023-08-21T02:18:27;29.10;64.00
38854;DHT22;24606;51.992;4.198;2023-08-21T02:23:29;29.00;64.10
38854;DHT22;24606;51.992;4.198;2023-08-21T02:28:32;29.00;64.00
38854;DHT22;24606;51.992;4.198;2023-08-21T02:33:34;29.00;64.00
38854;DHT22;24606;51.992;4.198;2023-08-21T02:38:35;29.00;64.10
38854;DHT22;24606;51.992;4.198;2023-08-21T02:43:39;28.90;64.10
38854;DHT22;24606;51.992;4.198;2023-08-21T02:48:41;28.80;64.10
38854;DHT22;24606;51.992;4.198;2023-08-21T02:53:42;28.80;64.10
38854;DHT22;24606;51.992;4.198;2023-08-21T03:15:29;28.50;64.30
38854;DHT22;24606;51.992;4.198;2023-08-21T03:20:30;28.60;64.80
38854;DHT22;24606;51.992;4.198;2023-08-21T03:25:32;28.60;64.60
38854;DHT22;24606;51.992;4.198;2023-08-21T03:30:35;28.60;64.50
38854;DHT22;24606;51.992;4.198;2023-08-21T03:35:40;28.60;64.60
38854;DHT22;24606;51.992;4.198;2023-08-21T03:40:42;28.60;64.50
38854;DHT22;24606;51.992;4.198;2023-08-21T03:45:45;28.60;64.60
38854;DHT22;24606;51.992;4.198;2023-08-21T03:50:47;28.50;64.60
38854;DHT22;24606;51.992;4.198;2023-08-21T03:55:48;28.50;64.60
38854;DHT22;24606;51.992;4.198;2023-08-21T04:00:52;28.50;64.60
38854;DHT22;24606;51.992;4.198;2023-08-21T04:05:54;28.50;64.60
38854;DHT22;24606;51.992;4.198;2023-08-21T04:10:57;28.50;64.80
38854;DHT22;24606;51.992;4.198;2023-08-21T04:16:01;28.40;64.70
38854;DHT22;24606;51.992;4.198;2023-08-21T04:21:03;28.40;64.70
38854;DHT22;24606;51.992;4.198;2023-08-21T04:26:05;28.40;64.80
38854;DHT22;24606;51.992;4.198;2023-08-21T04:31:09;28.30;64.80
38854;DHT22;24606;51.992;4.198;2023-08-21T04:36:14;28.30;64.70
38854;DHT22;24606;51.992;4.198;2023-08-21T04:41:17;28.30;64.30
38854;DHT22;24606;51.992;4.198;2023-08-21T04:46:20;28.20;63.90
38854;DHT22;24606;51.992;4.198;2023-08-21T04:51:22;28.20;63.70
38854;DHT22;24606;51.992;4.198;2023-08-21T04:56:24;28.20;63.40
38854;DHT22;24606;51.992;4.198;2023-08-21T05:01:27;28.20;63.30
38854;DHT22;24606;51.992;4.198;2023-08-21T05:06:29;28.20;63.20
38854;DHT22;24606;51.992;4.198;2023-08-21T05:11:30;28.10;63.10
38854;DHT22;24606;51.992;4.198;2023-08-21T05:16:34;28.10;63.00
38854;DHT22;24606;51.992;4.198;2023-08-21T05:21:36;28.10;63.00
38854;DHT22;24606;51.992;4.198;2023-08-21T05:26:38;28.00;62.90
38854;DHT22;24606;51.992;4.198;2023-08-21T05:31:41;28.00;62.90
38854;DHT22;24606;51.992;4.198;2023-08-21T05:36:44;28.10;63.00
38854;DHT22;24606;51.992;4.198;2023-08-21T05:41:45;28.10;63.00
38854;DHT22;24606;51.992;4.198;2023-08-21T05:46:49;28.00;62.90
38854;DHT22;24606;51.992;4.198;2023-08-21T05:51:50;28.10;62.90
38854;DHT22;24606;51.992;4.198;2023-08-21T05:56:52;28.10;63.00
38854;DHT22;24606;51.992;4.198;2023-08-21T06:01:55;28.00;63.00
38854;DHT22;24606;51.992;4.198;2023-08-21T06:06:57;28.10;63.80
38854;DHT22;24606;51.992;4.198;2023-08-21T06:11:59;28.10;63.40
38854;DHT22;24606;51.992;4.198;2023-08-21T06:17:03;28.10;63.50
38854;DHT22;24606;51.992;4.198;2023-08-21T06:22:06;28.10;64.30
38854;DHT22;24606;51.992;4.198;2023-08-21T06:27:08;28.10;63.90
38854;DHT22;24606;51.992;4.198;2023-08-21T06:32:11;28.10;64.20
38854;DHT22;24606;51.992;4.198;2023-08-21T06:37:13;27.70;65.90
38854;DHT22;24606;51.992;4.198;2023-08-21T06:42:15;27.90;65.40
38854;DHT22;24606;51.992;4.198;2023-08-21T06:47:18;27.70;66.80
38854;DHT22;24606;51.992;4.198;2023-08-21T06:52:20;27.80;66.40
38854;DHT22;24606;51.992;4.198;2023-08-21T06:57:22;27.80;66.30
38854;DHT22;24606;51.992;4.198;2023-08-21T07:02:25;28.00;66.10
38854;DHT22;24606;51.992;4.198;2023-08-21T07:07:27;27.80;66.80
38854;DHT22;24606;51.992;4.198;2023-08-21T07:12:29;28.00;66.50
38854;DHT22;24606;51.992;4.198;2023-08-21T07:17:32;28.10;67.20
38854;DHT22;24606;51.992;4.198;2023-08-21T07:22:34;27.60;68.90
38854;DHT22;24606;51.992;4.198;2023-08-21T07:27:37;27.10;70.80
38854;DHT22;24606;51.992;4.198;2023-08-21T07:32:41;28.10;67.40
38854;DHT22;24606;51.992;4.198;2023-08-21T07:37:43;27.30;68.80
38854;DHT22;24606;51.992;4.198;2023-08-21T07:42:45;27.80;68.90
38854;DHT22;24606;51.992;4.198;2023-08-21T07:47:48;28.20;67.30
38854;DHT22;24606;51.992;4.198;2023-08-21T07:52:50;28.30;66.60
38854;DHT22;24606;51.992;4.198;2023-08-21T07:57:52;28.40;66.40
38854;DHT22;24606;51.992;4.198;2023-08-21T08:02:55;27.80;67.30
38854;DHT22;24606;51.992;4.198;2023-08-21T08:07:57;28.40;66.40
38854;DHT22;24606;51.992;4.198;2023-08-21T08:12:59;28.30;66.80
38854;DHT22;24606;51.992;4.198;2023-08-21T08:18:03;27.80;65.70
38854;DHT22;24606;51.992;4.198;2023-08-21T08:23:06;27.50;67.00
38854;DHT22;24606;51.992;4.198;2023-08-21T08:28:08;27.60;66.30
38854;DHT22;24606;51.992;4.198;2023-08-21T08:33:11;28.20;66.90
38854;DHT22;24606;51.992;4.198;2023-08-21T08:38:13;28.00;65.30
38854;DHT22;24606;51.992;4.198;2023-08-21T08:43:15;28.40;65.90
38854;DHT22;24606;51.992;4.198;2023-08-21T08:48:19;28.40;66.00
38854;DHT22;24606;51.992;4.198;2023-08-21T08:53:21;28.00;67.80
38854;DHT22;24606;51.992;4.198;2023-08-21T08:58:24;28.20;66.50
38854;DHT22;24606;51.992;4.198;2023-08-21T09:03:28;28.50;65.50
38854;DHT22;24606;51.992;4.198;2023-08-21T09:08:30;27.30;64.40
38854;DHT22;24606;51.992;4.198;2023-08-21T09:13:32;27.30;70.10
38854;DHT22;24606;51.992;4.198;2023-08-21T09:18:35;28.00;66.10
38854;DHT22;24606;51.992;4.198;2023-08-21T09:23:38;28.20;66.90
38854;DHT22;24606;51.992;4.198;2023-08-21T09:28:40;27.90;65.40
38854;DHT22;24606;51.992;4.198;2023-08-21T09:33:43;28.50;65.30
38854;DHT22;24606;51.992;4.198;2023-08-21T09:38:46;27.90;66.80
38854;DHT22;24606;51.992;4.198;2023-08-21T09:43:49;28.10;66.30
38854;DHT22;24606;51.992;4.198;2023-08-21T09:48:53;28.30;66.20
38854;DHT22;24606;51.992;4.198;2023-08-21T09:53:55;26.90;69.80
38854;DHT22;24606;51.992;4.198;2023-08-21T09:58:58;27.10;68.70
38854;DHT22;24606;51.992;4.198;2023-08-21T10:04:02;28.20;66.90
38854;DHT22;24606;51.992;4.198;2023-08-21T10:09:05;28.40;66.40
38854;DHT22;24606;51.992;4.198;2023-08-21T10:14:08;27.60;66.80
38854;DHT22;24606;51.992;4.198;2023-08-21T10:19:14;28.20;66.10
38854;DHT22;24606;51.992;4.198;2023-08-21T10:24:35;28.00;67.40
38854;DHT22;24606;51.992;4.198;2023-08-21T10:29:38;28.20;67.10
38854;DHT22;24606;51.992;4.198;2023-08-21T10:34:51;28.60;65.70
38854;DHT22;24606;51.992;4.198;2023-08-21T10:39:54;28.30;66.60
38854;DHT22;24606;51.992;4.198;2023-08-21T10:44:57;28.40;66.30
38854;DHT22;24606;51.992;4.198;2023-08-21T10:50:02;28.20;65.50
38854;DHT22;24606;51.992;4.198;2023-08-21T10:55:05;27.90;65.60
38854;DHT22;24606;51.992;4.198;2023-08-21T11:00:08;28.30;67.10
38854;DHT22;24606;51.992;4.198;2023-08-21T11:05:14;28.00;68.40
38854;DHT22;24606;51.992;4.198;2023-08-21T11:10:17;28.30;67.00
38854;DHT22;24606;51.992;4.198;2023-08-21T11:15:19;27.40;69.60
38854;DHT22;24606;51.992;4.198;2023-08-21T11:20:23;28.90;65.30
38854;DHT22;24606;51.992;4.198;2023-08-21T11:25:28;27.00;68.40
38854;DHT22;24606;51.992;4.198;2023-08-21T11:30:31;26.90;72.80
38854;DHT22;24606;51.992;4.198;2023-08-21T11:35:35;27.90;65.70
38854;DHT22;24606;51.992;4.198;2023-08-21T11:40:37;27.10;73.60
38854;DHT22;24606;51.992;4.198;2023-08-21T11:45:39;27.40;70.20
38854;DHT22;24606;51.992;4.198;2023-08-21T11:50:42;26.50;74.50
38854;DHT22;24606;51.992;4.198;2023-08-21T11:55:44;27.40;70.70
38854;DHT22;24606;51.992;4.198;2023-08-21T12:00:48;27.40;69.80
38854;DHT22;24606;51.992;4.198;2023-08-21T12:05:51;27.80;70.70
38854;DHT22;24606;51.992;4.198;2023-08-21T12:10:53;26.70;72.00
38854;DHT22;24606;51.992;4.198;2023-08-21T12:15:55;26.90;73.50
38854;DHT22;24606;51.992;4.198;2023-08-21T12:20:58;27.60;72.00
38854;DHT22;24606;51.992;4.198;2023-08-21T12:26:00;26.40;76.10
38854;DHT22;24606;51.992;4.198;2023-08-21T12:31:02;26.70;77.70
38854;DHT22;24606;51.992;4.198;2023-08-21T12:36:06;26.60;76.50
38854;DHT22;24606;51.992;4.198;2023-08-21T12:41:09;27.40;74.90
38854;DHT22;24606;51.992;4.198;2023-08-21T12:46:11;28.30;69.80
38854;DHT22;24606;51.992;4.198;2023-08-21T12:51:14;27.80;68.70
38854;DHT22;24606;51.992;4.198;2023-08-21T12:56:16;28.40;69.00
38854;DHT22;24606;51.992;4.198;2023-08-21T13:01:18;28.20;69.90
38854;DHT22;24606;51.992;4.198;2023-08-21T13:06:22;28.00;68.90
38854;DHT22;24606;51.992;4.198;2023-08-21T13:11:24;28.10;66.50
38854;DHT22;24606;51.992;4.198;2023-08-21T13:16:25;28.20;69.00
38854;DHT22;24606;51.992;4.198;2023-08-21T13:21:29;28.30;65.50
38854;DHT22;24606;51.992;4.198;2023-08-21T13:26:32;27.80;72.20
38854;DHT22;24606;51.992;4.198;2023-08-21T13:31:34;27.60;75.40
38854;DHT22;24606;51.992;4.198;2023-08-21T13:36:38;28.30;66.20
38854;DHT22;24606;51.992;4.198;2023-08-21T13:41:39;28.40;69.50
38854;DHT22;24606;51.992;4.198;2023-08-21T13:46:41;28.40;71.10
38854;DHT22;24606;51.992;4.198;2023-08-21T13:51:44;28.50;71.40
38854;DHT22;24606;51.992;4.198;2023-08-21T13:56:46;29.50;65.50
38854;DHT22;24606;51.992;4.198;2023-08-21T14:01:48;29.10;70.70
38854;DHT22;24606;51.992;4.198;2023-08-21T14:06:51;29.30;67.30
38854;DHT22;24606;51.992;4.198;2023-08-21T14:11:53;29.40;68.30
38854;DHT22;24606;51.992;4.198;2023-08-21T14:16:55;30.10;67.80
38854;DHT22;24606;51.992;4.198;2023-08-21T14:21:58;30.00;64.80
38854;DHT22;24606;51.992;4.198;2023-08-21T14:27:00;30.60;62.90
38854;DHT22;24606;51.992;4.198;2023-08-21T14:32:02;30.10;66.10
38854;DHT22;24606;51.992;4.198;2023-08-21T14:37:06;30.30;67.60
38854;DHT22;24606;51.992;4.198;2023-08-21T14:42:08;31.30;64.60
38854;DHT22;24606;51.992;4.198;2023-08-21T14:47:10;31.10;64.40
38854;DHT22;24606;51.992;4.198;2023-08-21T14:52:13;31.40;64.40
38854;DHT22;24606;51.992;4.198;2023-08-21T14:57:15;31.60;60.70
38854;DHT22;24606;51.992;4.198;2023-08-21T15:02:17;31.00;64.60
38854;DHT22;24606;51.992;4.198;2023-08-21T15:07:21;31.80;64.10
38854;DHT22;24606;51.992;4.198;2023-08-21T15:12:22;32.10;64.60
38854;DHT22;24606;51.992;4.198;2023-08-21T15:17:24;32.00;64.10
38854;DHT22;24606;51.992;4.198;2023-08-21T15:22:27;32.90;63.40
38854;DHT22;24606;51.992;4.198;2023-08-21T15:27:30;33.20;64.50
38854;DHT22;24606;51.992;4.198;2023-08-21T15:32:32;33.00;56.50
38854;DHT22;24606;51.992;4.198;2023-08-21T15:37:35;32.50;64.30
38854;DHT22;24606;51.992;4.198;2023-08-21T15:42:37;31.90;54.50
38854;DHT22;24606;51.992;4.198;2023-08-21T15:47:39;32.50;69.20
38854;DHT22;24606;51.992;4.198;2023-08-21T15:52:42;33.20;62.60
38854;DHT22;24606;51.992;4.198;2023-08-21T15:57:45;32.70;68.50
38854;DHT22;24606;51.992;4.198;2023-08-21T16:02:47;33.60;56.60
38854;DHT22;24606;51.992;4.198;2023-08-21T16:07:50;33.30;64.90
38854;DHT22;24606;51.992;4.198;2023-08-21T16:12:54;32.70;64.70
38854;DHT22;24606;51.992;4.198;2023-08-21T16:17:56;33.40;57.00
38854;DHT22;24606;51.992;4.198;2023-08-21T16:22:59;33.50;62.90
38854;DHT22;24606;51.992;4.198;2023-08-21T16:28:01;34.00;65.20
38854;DHT22;24606;51.992;4.198;2023-08-21T16:33:04;34.00;65.70
38854;DHT22;24606;51.992;4.198;2023-08-21T16:38:07;33.90;64.60
38854;DHT22;24606;51.992;4.198;2023-08-21T16:43:09;34.00;66.00
38854;DHT22;24606;51.992;4.198;2023-08-21T16:48:11;33.90;62.50
38854;DHT22;24606;51.992;4.198;2023-08-21T16:53:14;33.90;60.00
38854;DHT22;24606;51.992;4.198;2023-08-21T16:58:16;34.20;64.80
38854;DHT22;24606;51.992;4.198;2023-08-21T17:03:18;34.50;63.30
38854;DHT22;24606;51.992;4.198;2023-08-21T17:08:21;34.30;61.30
38854;DHT22;24606;51.992;4.198;2023-08-21T17:13:23;34.20;64.90
38854;DHT22;24606;51.992;4.198;2023-08-21T17:18:25;34.40;62.10
38854;DHT22;24606;51.992;4.198;2023-08-21T17:23:29;34.30;62.60
38854;DHT22;24606;51.992;4.198;2023-08-21T17:28:30;34.70;64.50
38854;DHT22;24606;51.992;4.198;2023-08-21T17:33:32;34.60;62.00
38854;DHT22;24606;51.992;4.198;2023-08-21T17:38:39;34.60;64.00
38854;DHT22;24606;51.992;4.198;2023-08-21T17:43:41;34.70;61.80
38854;DHT22;24606;51.992;4.198;2023-08-21T17:48:44;34.80;62.50
38854;DHT22;24606;51.992;4.198;2023-08-21T17:53:47;34.80;61.70
38854;DHT22;24606;51.992;4.198;2023-08-21T17:58:50;34.70;61.20
38854;DHT22;24606;51.992;4.198;2023-08-21T18:03:51;34.70;61.40
38854;DHT22;24606;51.992;4.198;2023-08-21T18:08:55;34.80;61.80
38854;DHT22;24606;51.992;4.198;2023-08-21T18:13:57;34.80;61.00
38854;DHT22;24606;51.992;4.198;2023-08-21T18:18:59;34.80;61.70
38854;DHT22;24606;51.992;4.198;2023-08-21T18:24:02;34.80;60.10
38854;DHT22;24606;51.992;4.198;2023-08-21T18:29:04;34.80;60.70
38854;DHT22;24606;51.992;4.198;2023-08-21T18:34:06;34.80;61.90
38854;DHT22;24606;51.992;4.198;2023-08-21T18:39:09;34.70;60.90
38854;DHT22;24606;51.992;4.198;2023-08-21T18:44:12;34.60;61.30
38854;DHT22;24606;51.992;4.198;2023-08-21T18:49:14;34.60;60.80
38854;DHT22;24606;51.992;4.198;2023-08-21T18:54:17;34.60;60.60
38854;DHT22;24606;51.992;4.198;2023-08-21T18:59:23;34.40;60.60
38854;DHT22;24606;51.992;4.198;2023-08-21T19:04:25;34.40;59.90
38854;DHT22;24606;51.992;4.198;2023-08-21T19:09:28;34.30;59.70
38854;DHT22;24606;51.992;4.198;2023-08-21T19:14:30;34.20;59.30
38854;DHT22;24606;51.992;4.198;2023-08-21T19:19:32;34.00;59.30
38854;DHT22;24606;51.992;4.198;2023-08-21T19:24:35;33.90;60.00
38854;DHT22;24606;51.992;4.198;2023-08-21T19:29:37;33.50;58.80
38854;DHT22;24606;51.992;4.198;2023-08-21T19:34:39;33.30;58.70
38854;DHT22;24606;51.992;4.198;2023-08-21T19:39:42;33.10;59.10
38854;DHT22;24606;51.992;4.198;2023-08-21T19:44:44;32.90;59.00
38854;DHT22;24606;51.992;4.198;2023-08-21T19:49:46;32.80;58.70
38854;DHT22;24606;51.992;4.198;2023-08-21T19:54:49;32.70;58.70
38854;DHT22;24606;51.992;4.198;2023-08-21T19:59:52;32.60;58.80
38854;DHT22;24606;51.992;4.198;2023-08-21T20:04:54;32.50;58.80
38854;DHT22;24606;51.992;4.198;2023-08-21T20:09:57;32.40;58.80
38854;DHT22;24606;51.992;4.198;2023-08-21T20:14:59;32.30;58.90
38854;DHT22;24606;51.992;4.198;2023-08-21T20:20:01;32.20;59.00
38854;DHT22;24606;51.992;4.198;2023-08-21T20:25:06;32.10;59.00
38854;DHT22;24606;51.992;4.198;2023-08-21T20:30:09;32.10;59.10
38854;DHT22;24606;51.992;4.198;2023-08-21T20:35:12;32.00;59.20
38854;DHT22;24606;51.992;4.198;2023-08-21T20:40:15;31.90;59.30
38854;DHT22;24606;51.992;4.198;2023-08-21T20:45:17;31.80;59.40
38854;DHT22;24606;51.992;4.198;2023-08-21T20:50:19;31.70;59.40
38854;DHT22;24606;51.992;4.198;2023-08-21T20:55:22;31.70;59.60
38854;DHT22;24606;51.992;4.198;2023-08-21T21:00:24;31.70;59.70
38854;DHT22;24606;51.992;4.198;2023-08-21T21:05:26;31.60;59.80
38854;DHT22;24606;51.992;4.198;2023-08-21T21:10:29;31.50;59.80
38854;DHT22;24606;51.992;4.198;2023-08-21T21:15:31;31.50;60.00
38854;DHT22;24606;51.992;4.198;2023-08-21T21:20:34;31.40;60.20
38854;DHT22;24606;51.992;4.198;2023-08-21T21:25:37;31.40;60.20
38854;DHT22;24606;51.992;4.198;2023-08-21T21:30:39;31.30;60.40
38854;DHT22;24606;51.992;4.198;2023-08-21T21:35:41;31.30;60.50
38854;DHT22;24606;51.992;4.198;2023-08-21T21:40:45;31.20;60.60
38854;DHT22;24606;51.992;4.198;2023-08-21T21:45:54;31.20;60.70
38854;DHT22;24606;51.992;4.198;2023-08-21T21:50:57;31.20;60.80
38854;DHT22;24606;51.992;4.198;2023-08-21T21:56:00;31.10;60.80
38854;DHT22;24606;51.992;4.198;2023-08-21T22:01:04;31.10;60.90
38854;DHT22;24606;51.992;4.198;2023-08-21T22:06:06;31.00;61.00
38854;DHT22;24606;51.992;4.198;2023-08-21T22:11:10;31.00;61.10
38854;DHT22;24606;51.992;4.198;2023-08-21T22:16:13;30.90;61.10
38854;DHT22;24606;51.992;4.198;2023-08-21T22:21:15;30.80;61.10
38854;DHT22;24606;51.992;4.198;2023-08-21T22:26:19;30.80;61.20
38854;DHT22;24606;51.992;4.198;2023-08-21T22:31:21;30.80;61.30
38854;DHT22;24606;51.992;4.198;2023-08-21T22:36:22;30.70;61.30
38854;DHT22;24606;51.992;4.198;2023-08-21T22:41:26;30.70;61.50
38854;DHT22;24606;51.992;4.198;2023-08-21T22:46:27;30.60;61.50
38854;DHT22;24606;51.992;4.198;2023-08-21T22:51:29;30.60;61.70
38854;DHT22;24606;51.992;4.198;2023-08-21T22:56:32;30.50;61.60
38854;DHT22;24606;51.992;4.198;2023-08-21T23:01:34;30.50;61.70
38854;DHT22;24606;51.992;4.198;2023-08-21T23:06:36;30.50;61.70
38854;DHT22;24606;51.992;4.198;2023-08-21T23:11:40;30.40;61.80
38854;DHT22;24606;51.992;4.198;2023-08-21T23:16:41;30.40;62.50
38854;DHT22;24606;51.992;4.198;2023-08-21T23:21:44;30.40;62.00
38854;DHT22;24606;51.992;4.198;2023-08-21T23:26:47;30.30;62.00
38854;DHT22;24606;51.992;4.198;2023-08-21T23:31:49;30.20;62.00
38854;DHT22;24606;51.992;4.198;2023-08-21T23:36:51;30.20;62.20
38854;DHT22;24606;51.992;4.198;2023-08-21T23:41:54;30.20;62.20
38854;DHT22;24606;51.992;4.198;2023-08-21T23:46:56;30.10;62.30
38854;DHT22;24606;51.992;4.198;2023-08-21T23:51:57;30.10;62.40
38854;DHT22;24606;51.992;4.198;2023-08-21T23:57:01;30.10;62.40
